createdAt,value
2024-05-09T00:02:08.836Z,3.50
2024-05-09T00:04:36.004Z,3.30
2024-05-09T00:07:02.858Z,3.17
2024-05-09T00:09:29.556Z,2.97
2024-05-09T00:11:56.343Z,3.08
2024-05-09T00:14:23.088Z,3.10
2024-05-09T00:16:49.988Z,3.30
2024-05-09T00:19:16.817Z,3.10
2024-05-09T00:21:44.090Z,3.35
2024-05-09T00:24:10.994Z,3.33
2024-05-09T00:26:37.803Z,3.35
2024-05-09T00:29:04.554Z,3.60
2024-05-09T00:31:31.220Z,3.22
2024-05-09T00:33:58.067Z,2.80
2024-05-09T00:38:51.414Z,3.08
2024-05-09T00:41:19.859Z,3.63
2024-05-09T00:43:46.803Z,2.83
2024-05-09T00:46:13.867Z,3.65
2024-05-09T00:51:07.880Z,3.03
2024-05-09T00:53:35.023Z,3.60
2024-05-09T00:56:01.968Z,3.20
2024-05-09T00:58:30.568Z,3.58
2024-05-09T01:01:00.199Z,3.45
2024-05-09T01:03:27.613Z,3.03
2024-05-09T01:05:54.766Z,2.95
2024-05-09T01:08:21.782Z,3.42
2024-05-09T01:13:15.810Z,3.83
2024-05-09T01:15:43.316Z,3.20
2024-05-09T01:18:12.463Z,3.00
2024-05-09T01:20:43.269Z,3.40
2024-05-09T01:23:14.377Z,3.03
2024-05-09T01:25:42.846Z,3.15
2024-05-09T01:30:37.860Z,3.85
2024-05-09T01:33:07.768Z,3.13
2024-05-09T01:35:36.581Z,3.00
2024-05-09T01:38:03.736Z,2.95
2024-05-09T01:40:37.274Z,2.85
2024-05-09T01:43:07.182Z,3.50
2024-05-09T01:45:33.999Z,3.35
2024-05-09T01:48:01.453Z,3.38
2024-05-09T01:50:37.981Z,3.67
2024-05-09T01:53:09.541Z,3.25
2024-05-09T01:55:36.454Z,3.10
2024-05-09T01:58:03.209Z,3.03
2024-05-09T02:00:38.651Z,3.13
2024-05-09T02:03:11.262Z,3.10
2024-05-09T02:05:40.399Z,2.60
2024-05-09T02:08:07.415Z,3.20
2024-05-09T02:10:34.171Z,2.80
2024-05-09T02:13:01.163Z,2.83
2024-05-09T02:15:27.984Z,2.60
2024-05-09T02:17:54.746Z,2.53
2024-05-09T02:22:51.203Z,2.53
2024-05-09T02:25:19.063Z,2.72
2024-05-09T02:27:45.735Z,2.40
2024-05-09T02:30:18.644Z,2.33
2024-05-09T02:32:52.961Z,2.45
2024-05-09T02:35:19.728Z,2.67
2024-05-09T02:37:46.471Z,2.45
2024-05-09T02:40:15.002Z,2.10
2024-05-09T02:42:44.967Z,3.15
2024-05-09T02:45:11.642Z,2.47
2024-05-09T02:47:38.473Z,2.30
2024-05-09T02:52:34.635Z,2.10
2024-05-09T02:55:01.309Z,2.03
2024-05-09T02:57:27.990Z,1.80
2024-05-09T02:59:54.764Z,1.88
2024-05-09T03:02:21.513Z,1.55
2024-05-09T03:04:48.366Z,2.00
2024-05-09T03:07:15.045Z,2.78
2024-05-09T03:09:46.901Z,2.22
2024-05-09T03:12:13.768Z,1.88
2024-05-09T03:17:07.882Z,2.40
2024-05-09T03:19:37.783Z,1.80
2024-05-09T03:22:04.840Z,1.88
2024-05-09T03:26:58.060Z,1.80
2024-05-09T03:29:25.031Z,1.38
2024-05-09T03:31:52.146Z,1.75
2024-05-09T03:34:18.961Z,1.90
2024-05-09T03:36:45.733Z,1.73
2024-05-09T03:39:12.463Z,2.00
2024-05-09T03:41:39.342Z,1.83
2024-05-09T03:46:37.855Z,2.00
2024-05-09T03:49:04.985Z,2.17
2024-05-09T03:51:31.820Z,1.58
2024-05-09T03:53:58.635Z,1.67
2024-05-09T03:56:25.531Z,1.50
2024-05-09T04:01:19.161Z,1.52
2024-05-09T04:03:46.114Z,1.40
2024-05-09T04:06:20.318Z,1.60
2024-05-09T04:08:47.001Z,1.48
2024-05-09T04:11:13.889Z,2.08
2024-05-09T04:16:10.433Z,1.38
2024-05-09T04:18:37.711Z,1.42
2024-05-09T04:21:05.207Z,1.58
2024-05-09T04:23:32.082Z,1.73
2024-05-09T04:25:58.785Z,1.63
2024-05-09T04:28:26.243Z,1.60
2024-05-09T04:30:52.905Z,1.73
2024-05-09T04:33:20.855Z,1.58
2024-05-09T04:35:49.515Z,1.48
2024-05-09T04:38:16.398Z,1.70
2024-05-09T04:40:43.556Z,1.60
2024-05-09T04:43:19.667Z,1.90
2024-05-09T04:45:46.545Z,1.80
2024-05-09T04:48:13.576Z,1.60
2024-05-09T04:50:40.542Z,1.25
2024-05-09T04:53:10.070Z,1.48
2024-05-09T04:55:38.276Z,1.58
2024-05-09T04:58:08.552Z,1.70
2024-05-09T05:00:37.513Z,1.77
2024-05-09T05:03:07.920Z,1.60
2024-05-09T05:05:40.427Z,1.60
2024-05-09T05:08:18.434Z,1.40
2024-05-09T05:10:47.167Z,2.00
2024-05-09T05:13:23.743Z,1.90
2024-05-09T05:15:58.310Z,1.38
2024-05-09T05:18:27.258Z,1.17
2024-05-09T05:20:56.011Z,1.80
2024-05-09T05:23:23.508Z,1.48
2024-05-09T05:25:52.807Z,1.75
2024-05-09T05:28:20.018Z,1.60
2024-05-09T05:30:46.870Z,1.65
2024-05-09T05:33:14.562Z,1.00
2024-05-09T05:35:42.064Z,1.50
2024-05-09T05:38:09.820Z,1.58
2024-05-09T05:40:38.681Z,1.65
2024-05-09T05:43:10.746Z,1.83
2024-05-09T05:45:38.256Z,1.77
2024-05-09T05:48:06.969Z,1.70
2024-05-09T05:50:37.283Z,1.88
2024-05-09T05:53:10.204Z,1.50
2024-05-09T05:55:41.221Z,1.58
2024-05-09T05:58:12.226Z,1.42
2024-05-09T06:00:40.996Z,1.75
2024-05-09T06:03:09.969Z,1.63
2024-05-09T06:05:40.045Z,1.70
2024-05-09T06:08:07.537Z,1.60
2024-05-09T06:10:38.518Z,1.23
2024-05-09T06:13:07.834Z,1.88
2024-05-09T06:15:34.612Z,1.77
2024-05-09T06:18:01.862Z,1.48
2024-05-09T06:20:35.596Z,1.83
2024-05-09T06:23:08.512Z,2.03
2024-05-09T06:25:36.305Z,2.17
2024-05-09T06:28:03.619Z,1.67
2024-05-09T06:30:38.401Z,1.40
2024-05-09T06:33:10.140Z,1.60
2024-05-09T06:35:38.300Z,1.67
2024-05-09T06:38:06.087Z,1.75
2024-05-09T06:40:37.578Z,1.38
2024-05-09T06:43:17.925Z,1.10
2024-05-09T06:45:49.963Z,2.08
2024-05-09T06:48:20.734Z,1.77
2024-05-09T06:50:48.228Z,1.20
2024-05-09T06:53:15.947Z,1.67
2024-05-09T06:55:43.346Z,1.77
2024-05-09T06:58:10.150Z,1.85
2024-05-09T07:03:14.917Z,1.23
2024-05-09T07:05:44.013Z,1.38
2024-05-09T07:08:11.490Z,1.52
2024-05-09T07:10:38.576Z,1.30
2024-05-09T07:13:13.285Z,1.40
2024-05-09T07:15:41.213Z,1.60
2024-05-09T07:18:17.800Z,1.17
2024-05-09T07:20:46.890Z,1.58
2024-05-09T07:23:14.273Z,1.33
2024-05-09T07:25:41.851Z,1.80
2024-05-09T07:28:14.904Z,1.55
2024-05-09T07:30:42.200Z,1.30
2024-05-09T07:33:09.141Z,1.70
2024-05-09T07:35:36.119Z,1.45
2024-05-09T07:38:03.070Z,1.40
2024-05-09T07:40:35.797Z,1.33
2024-05-09T07:43:14.454Z,1.63
2024-05-09T07:45:50.691Z,1.58
2024-05-09T07:53:38.956Z,1.25
2024-05-09T07:56:09.381Z,1.70
2024-05-09T07:58:36.854Z,1.77
2024-05-09T08:03:31.644Z,1.70
2024-05-09T08:05:58.357Z,1.52
2024-05-09T08:10:51.763Z,1.40
2024-05-09T08:13:18.729Z,1.83
2024-05-09T08:15:45.912Z,2.08
2024-05-09T08:18:12.906Z,1.88
2024-05-09T08:20:41.493Z,1.67
2024-05-09T08:23:08.830Z,1.52
2024-05-09T08:25:35.620Z,1.90
2024-05-09T08:28:04.777Z,2.20
2024-05-09T08:30:36.748Z,1.50
2024-05-09T08:33:06.493Z,1.60
2024-05-09T08:35:34.442Z,1.42
2024-05-09T08:38:05.549Z,1.67
2024-05-09T08:40:35.914Z,1.67
2024-05-09T08:43:07.961Z,1.65
2024-05-09T08:45:35.968Z,1.48
2024-05-09T08:48:07.768Z,1.73
2024-05-09T08:50:39.177Z,1.50
2024-05-09T09:04:38.853Z,1.42
2024-05-09T09:07:06.629Z,1.42
2024-05-09T09:09:34.564Z,1.60
2024-05-09T09:12:01.388Z,1.30
2024-05-09T09:14:28.133Z,1.35
2024-05-09T09:16:56.561Z,1.55
2024-05-09T09:19:23.579Z,1.65
2024-05-09T09:21:50.420Z,1.35
2024-05-09T09:26:45.330Z,1.65
2024-05-09T09:29:12.107Z,1.50
2024-05-09T09:31:41.488Z,1.55
2024-05-09T09:34:08.929Z,1.88
2024-05-09T09:36:38.587Z,1.50
2024-05-09T09:39:06.722Z,1.63
2024-05-09T09:41:35.356Z,1.58
2024-05-09T09:44:04.174Z,1.60
2024-05-09T09:46:31.967Z,1.58
2024-05-09T09:48:58.918Z,1.30
2024-05-09T09:51:26.438Z,1.38
2024-05-09T09:53:53.553Z,1.42
2024-05-09T09:56:21.491Z,1.30
2024-05-09T09:58:48.909Z,1.85
2024-05-09T10:01:15.800Z,1.70
2024-05-09T10:03:42.773Z,1.20
2024-05-09T10:06:11.978Z,1.65
2024-05-09T10:08:39.640Z,1.30
2024-05-09T10:11:06.828Z,1.50
2024-05-09T10:13:34.949Z,1.30
2024-05-09T10:16:09.119Z,1.20
2024-05-09T10:18:40.320Z,1.10
2024-05-09T10:21:17.605Z,1.23
2024-05-09T10:23:56.039Z,1.20
2024-05-09T10:26:36.962Z,1.33
2024-05-09T10:29:18.038Z,1.73
2024-05-09T10:31:46.781Z,1.23
2024-05-09T10:34:21.240Z,1.60
2024-05-09T10:36:52.899Z,1.20
2024-05-09T10:39:21.042Z,1.30
2024-05-09T10:41:49.310Z,1.20
2024-05-09T10:44:17.153Z,1.20
2024-05-09T10:46:45.300Z,1.30
2024-05-09T10:49:15.174Z,0.98
2024-05-09T10:51:42.426Z,1.52
2024-05-09T10:54:09.130Z,1.45
2024-05-09T10:59:05.783Z,1.40
2024-05-09T11:01:32.714Z,1.45
2024-05-09T11:03:59.708Z,1.42
2024-05-09T11:06:26.636Z,1.10
2024-05-09T11:08:53.649Z,1.15
2024-05-09T11:11:20.680Z,1.13
2024-05-09T11:13:47.436Z,1.00
2024-05-09T11:16:20.150Z,1.20
2024-05-09T11:18:58.243Z,1.15
2024-05-09T11:21:25.553Z,1.30
2024-05-09T11:23:52.826Z,1.20
2024-05-09T11:26:21.522Z,1.20
2024-05-09T11:28:48.790Z,1.30
2024-05-09T11:31:15.619Z,0.82
2024-05-09T11:33:44.655Z,1.00
2024-05-09T11:36:11.790Z,1.40
2024-05-09T11:38:38.602Z,1.00
2024-05-09T11:41:06.013Z,1.60
2024-05-09T11:43:33.364Z,1.40
2024-05-09T11:46:01.055Z,1.25
2024-05-09T11:48:28.236Z,1.00
2024-05-09T11:50:55.729Z,1.30
2024-05-09T11:53:22.822Z,1.20
2024-05-09T11:55:49.776Z,1.08
2024-05-09T11:58:18.227Z,1.25
2024-05-09T12:00:46.102Z,1.45
2024-05-09T12:03:13.172Z,1.75
2024-05-09T12:05:40.016Z,1.13
2024-05-09T12:08:07.332Z,1.00
2024-05-09T12:10:35.999Z,0.90
2024-05-09T12:13:05.678Z,1.30
2024-05-09T12:15:36.284Z,1.15
2024-05-09T12:18:05.010Z,1.20
2024-05-09T12:20:37.506Z,1.40
2024-05-09T12:23:08.004Z,1.40
2024-05-09T12:25:36.407Z,1.08
2024-05-09T12:28:03.521Z,1.10
2024-05-09T12:30:36.661Z,0.88
2024-05-09T12:33:08.403Z,1.20
2024-05-09T12:35:35.548Z,1.10
2024-05-09T12:38:02.664Z,1.00
2024-05-09T12:40:36.234Z,1.10
2024-05-09T12:43:07.232Z,1.15
2024-05-09T12:45:34.565Z,1.10
2024-05-09T12:48:01.363Z,1.10
2024-05-09T12:50:32.674Z,1.25
2024-05-09T12:53:02.095Z,1.42
2024-05-09T12:55:33.966Z,1.30
2024-05-09T12:58:08.278Z,1.77
2024-05-09T13:00:35.410Z,1.00
2024-05-09T13:03:02.348Z,1.20
2024-05-09T13:05:29.697Z,0.77
2024-05-09T13:07:57.210Z,1.50
2024-05-09T13:10:31.713Z,0.80
2024-05-09T13:13:01.044Z,0.98
2024-05-09T13:15:28.723Z,1.13
2024-05-09T13:18:02.181Z,1.40
2024-05-09T13:20:35.720Z,1.33
2024-05-09T13:23:05.495Z,1.20
2024-05-09T13:25:35.018Z,1.10
2024-05-09T13:28:03.022Z,0.60
2024-05-09T13:30:38.531Z,1.20
2024-05-09T13:33:14.266Z,1.13
2024-05-09T13:35:46.886Z,1.10
2024-05-09T13:38:16.791Z,1.10
2024-05-09T13:40:43.548Z,1.10
2024-05-09T13:43:10.382Z,1.10
2024-05-09T13:45:37.190Z,1.27
2024-05-09T13:48:06.688Z,1.20
2024-05-09T13:50:36.185Z,1.15
2024-05-09T13:53:08.217Z,1.00
2024-05-09T13:55:38.362Z,1.20
2024-05-09T13:58:05.957Z,1.15
2024-05-09T14:00:43.799Z,1.42
2024-05-09T14:03:15.897Z,1.05
2024-05-09T14:05:43.292Z,1.33
2024-05-09T14:08:10.274Z,1.05
2024-05-09T14:10:43.522Z,1.30
2024-05-09T14:13:11.145Z,1.27
2024-05-09T14:15:38.034Z,1.48
2024-05-09T14:18:05.272Z,1.00
2024-05-09T14:20:32.707Z,0.88
2024-05-09T14:23:00.765Z,1.15
2024-05-09T14:25:32.438Z,1.25
2024-05-09T14:28:00.091Z,0.93
2024-05-09T14:30:34.772Z,1.10
2024-05-09T14:33:05.855Z,1.10
2024-05-09T14:35:33.369Z,0.90
2024-05-09T14:40:37.056Z,1.17
2024-05-09T14:43:08.726Z,1.15
2024-05-09T14:45:35.828Z,0.90
2024-05-09T14:48:03.979Z,1.00
2024-05-09T14:50:36.213Z,0.80
2024-05-09T14:53:07.380Z,1.17
2024-05-09T14:55:37.033Z,1.10
2024-05-09T14:58:07.764Z,1.08
2024-05-09T15:00:39.420Z,0.98
2024-05-09T15:03:08.704Z,0.90
2024-05-09T15:05:35.580Z,1.08
2024-05-09T15:08:07.125Z,0.90
2024-05-09T15:10:36.240Z,0.80
2024-05-09T15:13:04.536Z,1.38
2024-05-09T15:15:31.618Z,1.08
2024-05-09T15:17:58.943Z,1.30
2024-05-09T15:20:33.126Z,1.00
2024-05-09T15:23:02.809Z,2.17
2024-05-09T15:25:29.806Z,1.00
2024-05-09T15:27:56.796Z,1.20
2024-05-09T15:30:30.890Z,1.08
2024-05-09T15:33:00.891Z,1.00
2024-05-09T15:35:28.007Z,1.02
2024-05-09T15:37:55.108Z,1.17
2024-05-09T15:40:31.038Z,1.00
2024-05-09T15:43:05.746Z,1.30
2024-05-09T15:45:32.855Z,1.50
2024-05-09T15:48:00.399Z,1.00
2024-05-09T15:50:36.303Z,1.00
2024-05-09T15:55:34.822Z,1.13
2024-05-09T15:58:03.068Z,1.25
2024-05-09T16:00:37.525Z,1.05
2024-05-09T16:03:08.641Z,1.00
2024-05-09T16:05:37.685Z,0.95
2024-05-09T16:08:05.745Z,1.02
2024-05-09T16:10:34.342Z,1.10
2024-05-09T16:13:02.662Z,1.00
2024-05-09T16:15:30.276Z,1.20
2024-05-09T16:17:57.335Z,1.40
2024-05-09T16:22:54.543Z,1.08
2024-05-09T16:25:21.432Z,1.00
2024-05-09T16:27:48.481Z,1.45
2024-05-09T16:30:24.149Z,1.17
2024-05-09T16:32:55.215Z,1.20
2024-05-09T16:35:22.066Z,1.00
2024-05-09T16:40:24.946Z,0.93
2024-05-09T16:43:02.978Z,0.93
2024-05-09T16:45:29.770Z,1.02
2024-05-09T16:47:56.910Z,0.60
2024-05-09T16:50:29.382Z,1.00
2024-05-09T16:53:00.110Z,1.08
2024-05-09T16:55:27.231Z,1.15
2024-05-09T16:57:55.407Z,1.23
2024-05-09T17:00:31.561Z,1.23
2024-05-09T17:03:07.189Z,0.95
2024-05-09T17:05:36.123Z,1.00
2024-05-09T17:08:03.462Z,0.98
2024-05-09T17:10:33.632Z,1.17
2024-05-09T17:13:06.711Z,1.10
2024-05-09T17:15:35.375Z,1.70
2024-05-09T17:18:03.336Z,1.23
2024-05-09T17:20:34.491Z,1.00
2024-05-09T17:23:04.571Z,1.08
2024-05-09T17:25:31.944Z,1.27
2024-05-09T17:30:37.641Z,1.15
2024-05-09T17:33:08.000Z,1.38
2024-05-09T17:35:36.172Z,1.15
2024-05-09T17:38:03.395Z,1.15
2024-05-09T17:40:34.951Z,1.00
2024-05-09T17:43:04.929Z,1.10
2024-05-09T17:45:32.419Z,1.70
2024-05-09T17:47:59.851Z,0.90
2024-05-09T17:50:34.743Z,1.27
2024-05-09T17:53:03.807Z,0.80
2024-05-09T17:55:30.535Z,0.82
2024-05-09T18:00:33.749Z,1.30
2024-05-09T18:03:06.394Z,1.10
2024-05-09T18:05:35.221Z,1.20
2024-05-09T18:08:02.363Z,1.63
2024-05-09T18:13:06.254Z,0.90
2024-05-09T18:15:33.771Z,0.98
2024-05-09T18:18:01.612Z,1.10
2024-05-09T18:20:37.735Z,0.95
2024-05-09T18:23:10.481Z,1.27
2024-05-09T18:25:37.359Z,1.17
2024-05-09T18:30:34.656Z,0.80
2024-05-09T18:33:04.752Z,1.27
2024-05-09T18:35:32.542Z,1.17
2024-05-09T18:37:59.337Z,1.17
2024-05-09T18:40:33.005Z,1.17
2024-05-09T18:43:03.585Z,1.50
2024-05-09T18:45:30.635Z,1.23
2024-05-09T18:47:57.970Z,1.00
2024-05-09T18:50:32.526Z,1.30
2024-05-09T18:53:06.280Z,1.10
2024-05-09T18:55:33.326Z,1.25
2024-05-09T18:58:00.455Z,1.15
2024-05-09T19:00:34.343Z,1.42
2024-05-09T19:03:06.224Z,1.25
2024-05-09T19:05:36.066Z,1.23
2024-05-09T19:08:03.354Z,1.15
2024-05-09T19:10:34.337Z,1.15
2024-05-09T19:13:06.704Z,1.30
2024-05-09T19:15:37.670Z,0.82
2024-05-09T19:18:04.935Z,1.20
2024-05-09T19:20:35.959Z,1.20
2024-05-09T19:23:06.613Z,1.20
2024-05-09T19:25:34.607Z,1.20
2024-05-09T19:28:01.662Z,1.25
2024-05-09T19:30:37.119Z,1.30
2024-05-09T19:33:08.211Z,1.20
2024-05-09T19:35:35.278Z,1.30
2024-05-09T19:38:02.392Z,1.15
2024-05-09T19:40:32.203Z,1.38
2024-05-09T19:43:02.332Z,1.02
2024-05-09T19:45:29.939Z,1.10
2024-05-09T19:50:32.355Z,1.60
2024-05-09T19:53:07.239Z,1.38
2024-05-09T19:55:34.692Z,1.80
2024-05-09T19:58:04.909Z,0.73
2024-05-09T20:00:40.278Z,1.20
2024-05-09T20:03:10.015Z,1.27
2024-05-09T20:05:37.719Z,1.30
2024-05-09T20:08:05.438Z,1.20
2024-05-09T20:10:34.635Z,1.30
2024-05-09T20:13:03.582Z,1.60
2024-05-09T20:15:31.732Z,1.17
2024-05-09T20:17:58.845Z,1.55
2024-05-09T20:20:33.769Z,1.13
2024-05-09T20:23:08.050Z,1.10
2024-05-09T20:25:34.747Z,1.00
2024-05-09T20:28:01.535Z,1.20
2024-05-09T20:30:32.420Z,1.27
2024-05-09T20:33:04.433Z,1.48
2024-05-09T20:35:32.588Z,1.15
2024-05-09T20:37:59.764Z,1.50
2024-05-09T20:40:32.622Z,1.20
2024-05-09T20:43:03.139Z,1.85
2024-05-09T20:45:29.863Z,1.23
2024-05-09T20:47:57.549Z,1.30
2024-05-09T20:50:35.096Z,1.50
2024-05-09T20:53:05.844Z,1.20
2024-05-09T20:55:32.530Z,1.30
2024-05-09T20:57:59.391Z,1.40
2024-05-09T21:03:07.228Z,1.27
2024-05-09T21:05:34.998Z,1.35
2024-05-09T21:08:02.351Z,1.40
2024-05-09T21:13:02.256Z,1.08
2024-05-09T21:15:29.801Z,1.48
2024-05-09T21:17:56.557Z,1.60
2024-05-09T21:20:29.090Z,1.10
2024-05-09T21:22:58.638Z,1.30
2024-05-09T21:25:25.733Z,1.33
2024-05-09T21:27:52.967Z,1.38
2024-05-09T21:30:31.629Z,1.10
2024-05-09T21:33:09.527Z,1.20
2024-05-09T21:35:37.527Z,1.85
2024-05-09T21:38:04.648Z,1.83
2024-05-09T21:40:34.849Z,1.50
2024-05-09T21:43:03.730Z,1.50
2024-05-09T21:45:30.664Z,2.05
2024-05-09T21:47:57.604Z,1.52
2024-05-09T21:50:32.191Z,1.42
2024-05-09T21:53:05.877Z,1.70
2024-05-09T21:55:32.661Z,0.80
2024-05-09T21:57:59.497Z,1.60
2024-05-09T22:00:34.507Z,1.30
2024-05-09T22:03:04.666Z,1.38
2024-05-09T22:05:31.814Z,1.42
2024-05-09T22:07:58.655Z,1.65
2024-05-09T22:10:31.088Z,1.58
2024-05-09T22:13:01.495Z,1.98
2024-05-09T22:15:28.416Z,1.45
2024-05-09T22:17:56.674Z,1.67
2024-05-09T22:20:32.913Z,1.15
2024-05-09T22:23:04.205Z,1.33
2024-05-09T22:25:32.135Z,1.92
2024-05-09T22:28:00.035Z,1.70
2024-05-09T22:30:34.990Z,1.17
2024-05-09T22:33:06.324Z,1.10
2024-05-09T22:35:33.331Z,1.52
2024-05-09T22:38:00.431Z,1.52
2024-05-09T22:42:56.795Z,1.63
2024-05-09T22:45:23.538Z,1.40
2024-05-09T22:47:50.436Z,1.48
2024-05-09T22:50:26.219Z,1.15
2024-05-09T22:52:53.920Z,1.50
2024-05-09T22:55:20.700Z,1.40
2024-05-09T22:57:47.455Z,1.70
2024-05-09T23:00:16.047Z,1.40
2024-05-09T23:02:43.335Z,2.10
2024-05-09T23:07:37.121Z,1.50
2024-05-09T23:10:06.620Z,1.42
2024-05-09T23:12:38.953Z,1.30
2024-05-09T23:15:06.238Z,1.27
2024-05-09T23:17:33.842Z,1.35
2024-05-09T23:20:00.622Z,1.30
2024-05-09T23:22:27.661Z,1.38
2024-05-09T23:27:21.520Z,0.70
2024-05-09T23:32:14.939Z,1.42
2024-05-09T23:34:41.688Z,1.38
2024-05-09T23:37:10.950Z,1.15
2024-05-09T23:39:37.702Z,1.60
2024-05-09T23:42:04.798Z,1.55
2024-05-09T23:46:58.019Z,1.35
2024-05-09T23:49:24.799Z,1.83
2024-05-09T23:51:51.523Z,1.60
2024-05-09T23:54:18.227Z,1.90
2024-05-09T23:56:45.354Z,1.70
